EGGD - Bristol-Lulsgate
Distance from station: E 5mi, 14km
Updated: 12/13/2017 6:50am
Thunderstorm
Thunderstorm
 Wind from W
Wind: W 22 mph , 35 km/h
Temperature: 43°F , 6°C
Wind Chill: 34°F , 1°C
Dew Point: 37°F , 3°C
Humidity: 81%
Barometer: 29.32 inHg , 993 hPa
Clouds: Thunderstorm
Visibility: 6 miles , 10 km
2017/12/13 14:50 EGGD 131450Z AUTO 28019KT 9999 //////TCU 06/03 Q0993